»·PEaware :: N706XJ KMCC-KVNY

N706XJ :: KMCC-KVNY

FLIGHT INFORMATION

Flight Status: Arrived
Operator: Privately registered:
United States
More flights under this callsign
Pilot: Mark D. (12)
Aircraft: CESSNA 750 CITATION 10
(C750)
More flights by this aircraft type
Origin: KMCC McClellan
United States
Destination: KVNY Van Nuys
United States
More flights between these airports :: More routes between these airports
Route: +FROGO FRA EHF LHS LYNXX8
File this flight plan on PilotEdge
Remarks: XOJET Ops / V /
Altitude:
(Current/Filed)
35,000ft
Speed:
(Current/Filed)
450kts
Departed: 12-Nov-12 06:23 PM
Arrived: 12-Nov-12 07:11 PM
Distance/Time
Traveled:
302nm/0:48
Distance/Time
To Go:
Arrived

Flight Plot

Page will automatically refresh every two minutes.

Flight plan parsing failed; only flown route is shown


Map Options




Map Legend


Flown Route
Filed Route
Departure Airport
Arrival Airport
Navaid (VOR, NDB)
Fix

Horizontal Profiles

Position Reports

Time Latitude Longitude Heading Altitude Ground
Speed
12-Nov-12 18:10 38.663389 -121.397597 318 79ft 0kts
12-Nov-12 18:11 38.663391 -121.397600 318 79ft 0kts
12-Nov-12 18:12 38.663393 -121.397602 318 79ft 0kts
12-Nov-12 18:13 38.663395 -121.397605 318 79ft 0kts
12-Nov-12 18:14 38.663398 -121.397607 318 79ft 0kts
12-Nov-12 18:15 38.663400 -121.397610 318 79ft 0kts
12-Nov-12 18:16 38.663402 -121.397612 318 79ft 0kts
12-Nov-12 18:17 38.663404 -121.397615 318 79ft 0kts
12-Nov-12 18:18 38.663407 -121.397617 318 79ft 0kts
12-Nov-12 18:19 38.663409 -121.397620 318 79ft 0kts
12-Nov-12 18:20 38.663411 -121.397622 318 79ft 0kts
12-Nov-12 18:21 38.663413 -121.397625 318 79ft 0kts
12-Nov-12 18:22 38.671653 -121.398871 0 79ft 41kts
12-Nov-12 18:23 38.679626 -121.398889 359 79ft 21kts
12-Nov-12 18:24 38.673991 -121.400512 179 81ft 139kts
12-Nov-12 18:25 38.609467 -121.392465 172 3641ft 273kts
12-Nov-12 18:26 38.548148 -121.356461 114 9249ft 259kts
12-Nov-12 18:27 38.511311 -121.259433 122 13356ft 346kts
12-Nov-12 18:28 38.455193 -121.144415 121 17408ft 410kts
12-Nov-12 18:29 38.393451 -121.014360 122 21421ft 443kts
12-Nov-12 18:30 38.328251 -120.879114 124 25400ft 450kts
12-Nov-12 18:31 38.262778 -120.744127 125 29408ft 440kts
12-Nov-12 18:32 38.189286 -120.630531 151 33309ft 395kts
12-Nov-12 18:33 38.096662 -120.550224 150 34910ft 422kts
12-Nov-12 18:34 37.997544 -120.451836 148 34995ft 480kts
12-Nov-12 18:35 37.886968 -120.343840 148 34993ft 518kts
12-Nov-12 18:36 37.771068 -120.231752 148 34992ft 530kts
12-Nov-12 18:37 37.652854 -120.117862 148 34992ft 539kts
12-Nov-12 18:38 37.532741 -120.002303 147 34993ft 544kts
12-Nov-12 18:39 37.412160 -119.886635 147 34992ft 547kts
12-Nov-12 18:40 37.291039 -119.771076 147 34990ft 546kts
12-Nov-12 18:41 37.170301 -119.655591 148 34996ft 543kts
12-Nov-12 18:42 37.019208 -119.556544 174 35007ft 516kts
12-Nov-12 18:43 36.901931 -119.531724 175 35006ft 514kts
12-Nov-12 18:44 36.762120 -119.488434 170 34988ft 517kts
12-Nov-12 18:45 36.623215 -119.443832 172 34991ft 515kts
12-Nov-12 18:46 36.484095 -119.401525 171 34992ft 515kts
12-Nov-12 18:47 36.344805 -119.358512 172 34992ft 514kts
12-Nov-12 18:48 36.206138 -119.315939 172 34995ft 514kts
12-Nov-12 18:49 36.067541 -119.273611 172 34993ft 513kts
12-Nov-12 18:50 35.928749 -119.231091 172 34995ft 512kts
12-Nov-12 18:51 35.790748 -119.188694 172 35000ft 511kts
12-Nov-12 18:52 35.653034 -119.147146 172 34985ft 510kts
12-Nov-12 18:53 35.515607 -119.105753 172 34996ft 508kts
12-Nov-12 18:54 35.387688 -119.038460 153 32639ft 489kts
12-Nov-12 18:55 35.275010 -118.956961 157 29885ft 454kts
12-Nov-12 18:56 35.166009 -118.888057 156 27129ft 432kts
12-Nov-12 18:57 35.058231 -118.817777 155 24618ft 458kts
12-Nov-12 18:58 34.942445 -118.742624 153 22530ft 478kts
12-Nov-12 18:59 34.824738 -118.666595 154 19958ft 462kts
12-Nov-12 19:00 34.716212 -118.597191 154 17355ft 421kts
12-Nov-12 19:01 34.608490 -118.577255 193 14798ft 385kts
12-Nov-12 19:02 34.506258 -118.594688 178 11300ft 335kts
12-Nov-12 19:03 34.429462 -118.565171 163 7915ft 264kts
12-Nov-12 19:04 34.366813 -118.544966 171 6869ft 189kts
12-Nov-12 19:05 34.321050 -118.534207 172 5334ft 179kts
12-Nov-12 19:06 34.273645 -118.526070 174 4196ft 166kts
12-Nov-12 19:07 34.226035 -118.522276 178 3071ft 158kts
12-Nov-12 19:08 34.182146 -118.525437 182 2502ft 158kts
12-Nov-12 19:09 34.178100 -118.490363 21 1425ft 130kts
12-Nov-12 19:10 34.206328 -118.490297 319 806ft 6kts
12-Nov-12 19:11 34.204255 -118.491325 277 806ft 4kts
12-Nov-12 19:12 34.204460 -118.491569 358 806ft 0kts
12-Nov-12 19:13 34.204462 -118.491569 358 806ft 0kts
12-Nov-12 19:14 34.204462 -118.491569 358 806ft 0kts
12-Nov-12 19:15 34.204462 -118.491569 358 806ft 0kts

Navigation Log

Ident Type
Flight plan parsing failed, navigation log unavailable